Time;durP1;ratioP1;P1;durP2;ratioP2;P2;SDS_P1;SDS_P2;PMS_P1;PMS_P2;Temp;Humidity;BMP_temperature;BMP_pressure;BME280_temperature;BME280_humidity;BME280_pressure;Samples;Min_cycle;Max_cycle;Signal;HPM_P1;HPM_P2
2021/01/30 00:02:22;;;;;;;70.70;45.88;;;256.90;2022.40;;;;;;4956962;29;20494;-70
2021/01/30 00:04:49;;;;;;;49.30;32.58;;;281.80;1996.80;;;;;;4956892;28;20027;-70
2021/01/30 00:07:15;;;;;;;45.53;30.35;;;256.80;2022.40;;;;;;4956908;29;20035;-70
2021/01/30 00:09:41;;;;;;;47.78;32.45;;;256.70;2022.40;;;;;;4957152;29;20359;-71
2021/01/30 00:12:06;;;;;;;56.17;36.78;;;256.80;2022.40;;;;;;4956885;29;20031;-71
2021/01/30 00:14:35;;;;;;;100.15;51.47;;;256.50;2073.60;;;;;;4956666;29;20030;-70
2021/01/30 00:17:03;;;;;;;168.27;81.47;;;256.40;2099.20;;;;;;4956612;29;20023;-70
2021/01/30 00:19:29;;;;;;;152.63;74.88;;;256.50;2073.60;;;;;;4956585;29;20062;-70
2021/01/30 00:22:10;;;;;;;95.38;55.60;;;256.50;2048.00;;;;;;4956683;29;20020;-70
2021/01/30 00:24:35;;;;;;;91.97;52.50;;;256.60;2048.00;;;;;;4956523;29;20035;-71
2021/01/30 00:27:03;;;;;;;91.15;56.92;;;256.30;2099.20;;;;;;4956948;29;20105;-71
2021/01/30 00:29:32;;;;;;;125.07;70.75;;;256.10;2124.80;;;;;;4956608;29;20346;-71
2021/01/30 00:31:58;;;;;;;334.90;146.13;;;256.00;2150.40;;;;;;4956504;29;20110;-70
2021/01/30 00:34:26;;;;;;;119.25;73.60;;;256.10;2124.80;;;;;;4955726;28;20031;-70
2021/01/30 00:36:53;;;;;;;126.28;74.82;;;256.10;2124.80;;;;;;4938807;29;20470;-71
2021/01/30 00:39:20;;;;;;;139.23;77.13;;;256.50;2099.20;;;;;;4956255;29;20034;-70
2021/01/30 00:41:46;;;;;;;125.75;77.82;;;256.90;2022.40;;;;;;4956814;29;20102;-71
2021/01/30 00:44:12;;;;;;;122.32;74.38;;;281.90;2022.40;;;;;;4956167;29;20019;-71
2021/01/30 00:46:37;;;;;;;90.20;57.63;;;282.10;1971.20;;;;;;4956056;29;20397;-70
2021/01/30 00:49:03;;;;;;;49.38;32.60;;;282.20;1971.20;;;;;;4956536;29;20028;-71
2021/01/30 00:51:30;;;;;;;53.50;33.78;;;282.10;1971.20;;;;;;4956457;29;20028;-70
2021/01/30 00:53:55;;;;;;;50.53;32.97;;;281.90;1996.80;;;;;;4956449;29;20023;-71
2021/01/30 00:56:21;;;;;;;58.80;35.80;;;282.10;1971.20;;;;;;4955968;29;20505;-70
2021/01/30 00:58:47;;;;;;;79.75;51.15;;;282.00;1996.80;;;;;;4939116;29;20120;-71
2021/01/30 01:01:13;;;;;;;90.88;55.05;;;282.10;1971.20;;;;;;4956334;29;20034;-70
2021/01/30 01:03:40;;;;;;;85.72;52.88;;;282.20;1971.20;;;;;;4965507;28;20034;-70
2021/01/30 01:06:06;;;;;;;84.75;49.55;;;282.30;1945.60;;;;;;4975546;28;20035;-71
2021/01/30 01:08:32;;;;;;;79.45;48.42;;;282.40;1945.60;;;;;;4975556;28;20027;-71
2021/01/30 01:10:58;;;;;;;65.70;43.70;;;282.50;1920.00;;;;;;4975311;28;20393;-71
2021/01/30 01:13:25;;;;;;;70.97;47.60;;;282.50;1920.00;;;;;;4975559;28;20027;-71
2021/01/30 01:15:51;;;;;;;78.90;48.38;;;282.40;1945.60;;;;;;4975244;28;20392;-70
2021/01/30 01:18:17;;;;;;;64.25;42.63;;;282.20;1971.20;;;;;;4975142;28;20025;-71
2021/01/30 01:20:42;;;;;;;99.32;55.85;;;282.10;1971.20;;;;;;4975221;28;20023;-71
2021/01/30 01:23:08;;;;;;;81.72;47.92;;;282.00;1971.20;;;;;;4969473;28;20464;-71
2021/01/30 01:25:34;;;;;;;80.68;46.80;;;282.00;1971.20;;;;;;4955784;29;20039;-71
2021/01/30 01:28:00;;;;;;;85.45;46.83;;;282.20;1971.20;;;;;;4955683;29;20031;-70
2021/01/30 01:30:26;;;;;;;61.70;41.00;;;282.40;1945.60;;;;;;4955811;28;20023;-70
2021/01/30 01:32:53;;;;;;;61.50;40.72;;;282.20;1945.60;;;;;;4955322;28;20019;-71
2021/01/30 01:35:27;;;;;;;67.43;45.22;;;282.30;1945.60;;;;;;4955623;29;20031;-71
2021/01/30 01:37:53;;;;;;;79.72;51.97;;;282.40;1920.00;;;;;;4955650;29;20055;-71
2021/01/30 01:40:26;;;;;;;84.40;55.17;;;282.40;1920.00;;;;;;4955538;29;20019;-71
2021/01/30 01:43:01;;;;;;;89.60;57.85;;;281.90;1996.80;;;;;;4955635;29;20034;-70
2021/01/30 01:45:28;;;;;;;104.57;59.83;;;282.20;1971.20;;;;;;4955471;29;20042;-70
2021/01/30 01:47:53;;;;;;;98.32;60.38;;;282.30;1945.60;;;;;;4955132;28;20031;-70
2021/01/30 01:50:25;;;;;;;74.78;45.75;;;282.50;1945.60;;;;;;4955375;29;20027;-70
2021/01/30 01:52:52;;;;;;;95.18;55.58;;;282.50;1920.00;;;;;;4955425;29;20066;-71
2021/01/30 01:55:19;;;;;;;62.25;40.33;;;282.50;1920.00;;;;;;4955198;29;20031;-71
2021/01/30 01:57:51;;;;;;;47.58;31.77;;;282.20;1945.60;;;;;;4955063;28;20089;-70
2021/01/30 02:00:20;;;;;;;62.63;40.65;;;282.10;1945.60;;;;;;4955551;29;20059;-71
2021/01/30 02:02:48;;;;;;;51.17;33.95;;;282.10;1996.80;;;;;;4957345;28;20114;-70
2021/01/30 02:05:36;;;;;;;45.38;31.02;;;282.30;1920.00;;;;;;4974601;28;20102;-71
2021/01/30 02:08:05;;;;;;;47.72;31.85;;;282.20;1945.60;;;;;;4974506;28;20437;-71
2021/01/30 02:10:41;;;;;;;44.13;27.90;;;282.30;1920.00;;;;;;4974247;28;20062;-70
2021/01/30 02:13:34;;;;;;;33.35;22.83;;;282.30;1920.00;;;;;;4974248;28;20411;-70
2021/01/30 02:16:14;;;;;;;38.75;23.45;;;282.30;1920.00;;;;;;4972059;28;20038;-70
2021/01/30 02:19:17;;;;;;;35.33;22.23;;;282.20;1945.60;;;;;;4974379;28;20019;-70
2021/01/30 02:22:22;;;;;;;33.53;20.40;;;282.00;1945.60;;;;;;4974215;28;20023;-71
2021/01/30 02:25:00;;;;;;;29.30;18.25;;;282.10;1945.60;;;;;;4954860;28;20031;-71
2021/01/30 02:27:45;;;;;;;24.80;17.83;;;282.20;1920.00;;;;;;4954878;29;20394;-71
2021/01/30 02:30:29;;;;;;;28.73;18.45;;;282.20;1945.60;;;;;;4954745;29;20434;-71
2021/01/30 02:33:13;;;;;;;38.10;23.35;;;282.20;1945.60;;;;;;4954375;29;20019;-70
2021/01/30 02:35:53;;;;;;;36.05;21.70;;;282.40;1920.00;;;;;;4954611;29;20035;-70
2021/01/30 02:38:23;;;;;;;34.80;21.58;;;282.40;1920.00;;;;;;4954703;29;20059;-71
2021/01/30 02:40:55;;;;;;;33.00;21.70;;;282.40;1920.00;;;;;;4954929;29;20074;-70
2021/01/30 02:43:28;;;;;;;35.78;22.92;;;282.50;1920.00;;;;;;4954629;29;20422;-71
2021/01/30 02:46:03;;;;;;;39.03;24.15;;;282.50;1894.40;;;;;;4954493;29;20031;-70
2021/01/30 02:48:47;;;;;;;40.40;25.55;;;307.30;1920.00;;;;;;4954698;29;20020;-71
2021/01/30 02:51:21;;;;;;;46.15;27.35;;;307.20;1920.00;;;;;;4954586;29;20071;-71
2021/01/30 02:53:56;;;;;;;45.17;25.00;;;307.20;1920.00;;;;;;4954703;29;20023;-70
2021/01/30 02:56:23;;;;;;;38.28;24.92;;;282.50;1920.00;;;;;;4954586;28;20111;-71
2021/01/30 02:59:01;;;;;;;40.40;26.98;;;282.20;1920.00;;;;;;4956415;28;20032;-71
2021/01/30 03:01:28;;;;;;;41.95;27.67;;;282.20;1945.60;;;;;;4941274;29;20390;-70
2021/01/30 03:03:57;;;;;;;40.97;27.27;;;282.30;1920.00;;;;;;4952250;28;20042;-70
2021/01/30 03:06:59;;;;;;;44.53;27.52;;;282.30;1945.60;;;;;;4977734;28;20031;-71
2021/01/30 03:09:36;;;;;;;42.38;25.90;;;282.50;1920.00;;;;;;4977736;28;20023;-70
2021/01/30 03:12:17;;;;;;;39.35;24.27;;;282.50;1920.00;;;;;;4977688;28;20023;-70
2021/01/30 03:14:48;;;;;;;37.63;23.42;;;307.20;1920.00;;;;;;4977610;28;20023;-70
2021/01/30 03:17:14;;;;;;;;;;;307.20;1945.60;;;;;;4960822;28;20504;-70
2021/01/30 03:19:40;;;;;;;37.47;20.90;;;307.30;1920.00;;;;;;4977366;28;19906;-71
2021/01/30 03:22:10;;;;;;;31.38;19.77;;;307.20;1920.00;;;;;;4977198;28;20033;-70
2021/01/30 03:24:45;;;;;;;31.75;20.98;;;307.30;1920.00;;;;;;4960100;28;20442;-71
2021/01/30 03:27:26;;;;;;;40.40;23.20;;;307.30;1920.00;;;;;;4958017;28;20042;-70
2021/01/30 03:29:52;;;;;;;38.58;24.85;;;307.20;1945.60;;;;;;4958022;29;20024;-71
2021/01/30 03:32:19;;;;;;;37.00;24.00;;;307.20;1920.00;;;;;;4958014;29;20042;-70
2021/01/30 03:34:49;;;;;;;36.25;21.95;;;307.20;1945.60;;;;;;4957599;29;20059;-70
2021/01/30 03:37:16;;;;;;;32.95;20.70;;;307.30;1920.00;;;;;;4957782;29;20027;-71
2021/01/30 03:39:42;;;;;;;32.05;20.50;;;307.30;1920.00;;;;;;4958185;29;20497;-70
2021/01/30 03:42:08;;;;;;;33.72;21.48;;;307.40;1920.00;;;;;;4957846;29;20023;-70
2021/01/30 03:44:33;;;;;;;31.17;20.80;;;307.20;1920.00;;;;;;4957674;29;20038;-70
2021/01/30 03:46:59;;;;;;;125.03;47.03;;;282.10;1945.60;;;;;;4957555;29;20031;-71
2021/01/30 03:49:25;;;;;;;49.70;26.38;;;256.90;2022.40;;;;;;4957560;29;20032;-70
2021/01/30 03:51:51;;;;;;;37.67;23.08;;;256.70;2048.00;;;;;;4957668;29;20034;-71
2021/01/30 03:54:17;;;;;;;43.20;25.00;;;256.60;2048.00;;;;;;4957453;29;20020;-71
2021/01/30 03:56:44;;;;;;;34.83;23.85;;;256.70;2048.00;;;;;;4957234;29;20074;-70
2021/01/30 03:59:11;;;;;;;39.03;25.85;;;281.80;2022.40;;;;;;4957428;29;20087;-70
2021/01/30 04:01:37;;;;;;;38.88;26.77;;;282.10;1971.20;;;;;;4957382;29;20106;-70
2021/01/30 04:04:02;;;;;;;43.13;29.05;;;282.30;1945.60;;;;;;4969263;28;20101;-71
2021/01/30 04:06:28;;;;;;;52.60;35.35;;;282.50;1920.00;;;;;;4976667;28;20126;-71
2021/01/30 04:08:54;;;;;;;63.22;39.13;;;282.50;1920.00;;;;;;4976595;28;20019;-70
2021/01/30 04:11:28;;;;;;;62.45;38.78;;;281.90;1996.80;;;;;;4975466;28;20389;-71
2021/01/30 04:13:56;;;;;;;57.38;35.97;;;256.90;2022.40;;;;;;4976496;28;20508;-70
2021/01/30 04:16:25;;;;;;;70.18;39.83;;;256.60;2048.00;;;;;;4976456;28;20082;-70
2021/01/30 04:18:51;;;;;;;90.45;47.60;;;256.60;2073.60;;;;;;4976135;28;20023;-70
2021/01/30 04:21:17;;;;;;;58.33;33.25;;;256.90;2048.00;;;;;;4976425;28;20027;-71
2021/01/30 04:23:44;;;;;;;39.80;26.30;;;256.80;2022.40;;;;;;4966054;28;20426;-71
2021/01/30 04:26:10;;;;;;;32.97;20.77;;;256.80;2022.40;;;;;;4957365;28;20470;-71
2021/01/30 04:28:36;;;;;;;28.88;18.95;;;256.50;2073.60;;;;;;4956914;29;20039;-71
2021/01/30 04:31:01;;;;;;;42.42;28.45;;;256.40;2099.20;;;;;;4956911;29;20057;-70
2021/01/30 04:33:27;;;;;;;60.63;31.65;;;256.40;2099.20;;;;;;4956757;29;20150;-70
2021/01/30 04:35:53;;;;;;;44.50;32.80;;;256.60;2073.60;;;;;;4956837;29;20106;-71
2021/01/30 04:38:18;;;;;;;28.95;20.52;;;256.70;2048.00;;;;;;4956806;29;20378;-70
2021/01/30 04:40:46;;;;;;;33.63;23.63;;;281.60;2022.40;;;;;;4956729;29;20106;-71
2021/01/30 04:43:14;;;;;;;34.33;22.67;;;281.60;2022.40;;;;;;4956461;29;20028;-70
2021/01/30 04:46:17;;;;;;;43.90;30.38;;;282.00;1996.80;;;;;;4956576;29;20486;-70
2021/01/30 04:49:10;;;;;;;45.22;31.33;;;282.10;1971.20;;;;;;4956544;29;20039;-71
2021/01/30 04:51:56;;;;;;;54.75;47.20;;;282.10;1996.80;;;;;;4955758;29;20461;-70
2021/01/30 04:54:57;;;;;;;70.93;63.17;;;282.40;1945.60;;;;;;4956170;29;20089;-70
2021/01/30 04:57:26;;;;;;;89.15;61.30;;;282.40;1945.60;;;;;;4956162;29;20051;-70
2021/01/30 05:00:28;;;;;;;84.82;55.38;;;282.50;1945.60;;;;;;4956124;29;20053;-70
2021/01/30 05:03:31;;;;;;;70.15;44.35;;;282.50;1945.60;;;;;;4958664;28;20027;-70
2021/01/30 05:06:04;;;;;;;92.70;58.55;;;282.20;1945.60;;;;;;4974964;28;20034;-70
2021/01/30 05:08:45;;;;;;;66.55;44.50;;;256.90;2048.00;;;;;;4975036;28;20023;-70
2021/01/30 05:11:16;;;;;;;69.37;46.37;;;256.50;2099.20;;;;;;4957763;28;20026;-70
2021/01/30 05:13:55;;;;;;;81.63;53.70;;;256.90;2048.00;;;;;;4974945;28;20030;-71
2021/01/30 05:16:26;;;;;;;90.25;62.17;;;281.90;2022.40;;;;;;4975084;28;20102;-70
2021/01/30 05:18:57;;;;;;;88.82;60.47;;;282.10;1996.80;;;;;;4957525;28;20034;-69
2021/01/30 05:21:38;;;;;;;61.53;42.15;;;281.80;2022.40;;;;;;4974690;28;20545;-71
2021/01/30 05:24:04;;;;;;;47.77;33.07;;;256.70;2073.60;;;;;;4961757;28;20023;-71
2021/01/30 05:26:39;;;;;;;46.38;30.73;;;256.40;2099.20;;;;;;4955823;29;20043;-71
2021/01/30 05:29:46;;;;;;;45.15;30.08;;;256.30;2124.80;;;;;;4955500;29;20077;-70
2021/01/30 05:32:46;;;;;;;33.65;23.50;;;256.20;2124.80;;;;;;4896110;29;20049;-70
2021/01/30 05:35:20;;;;;;;34.85;23.80;;;256.50;2099.20;;;;;;4840311;29;20042;-72
2021/01/30 05:37:52;;;;;;;43.65;30.13;;;256.70;2073.60;;;;;;4840396;29;20505;-70
2021/01/30 05:40:45;;;;;;;59.25;39.92;;;281.60;2048.00;;;;;;4840202;29;20046;-70
2021/01/30 05:43:37;;;;;;;59.47;40.45;;;281.80;2022.40;;;;;;4840723;29;20601;-70
2021/01/30 05:46:04;;;;;;;55.95;38.22;;;282.00;2022.40;;;;;;4840684;29;20058;-70
2021/01/30 05:48:38;;;;;;;58.60;40.75;;;282.00;1996.80;;;;;;4824938;29;20030;-70
2021/01/30 05:51:44;;;;;;;107.22;64.60;;;282.10;1996.80;;;;;;4840213;29;20054;-70
2021/01/30 05:54:10;;;;;;;70.25;47.20;;;282.10;1971.20;;;;;;4840310;29;20390;-69
2021/01/30 05:56:42;;;;;;;90.43;56.05;;;281.70;2048.00;;;;;;4839944;29;20096;-70
2021/01/30 05:59:16;;;;;;;95.28;60.92;;;256.80;2048.00;;;;;;4840174;29;20434;-71
2021/01/30 06:01:42;;;;;;;92.32;60.83;;;256.70;2048.00;;;;;;4840249;29;20042;-70
2021/01/30 06:04:10;;;;;;;97.72;62.40;;;256.90;2022.40;;;;;;4851735;29;20116;-70
2021/01/30 06:06:49;;;;;;;94.70;59.70;;;281.80;1996.80;;;;;;4858507;29;20080;-70
2021/01/30 06:09:36;;;;;;;215.88;113.32;;;282.00;1971.20;;;;;;4872623;29;20127;-69
2021/01/30 06:12:22;;;;;;;153.55;91.63;;;281.90;1996.80;;;;;;4916835;29;20134;-70
2021/01/30 06:14:48;;;;;;;148.43;88.10;;;281.80;1996.80;;;;;;4935727;29;20031;-70
2021/01/30 06:17:28;;;;;;;117.07;77.38;;;282.00;1971.20;;;;;;4935616;29;20023;-71
2021/01/30 06:20:18;;;;;;;125.53;81.43;;;281.90;1971.20;;;;;;4935387;29;20020;-70
2021/01/30 06:23:03;;;;;;;121.15;80.18;;;281.90;1996.80;;;;;;4937987;28;20027;-70
2021/01/30 06:25:32;;;;;;;125.65;81.97;;;282.00;1971.20;;;;;;4954564;28;20131;-70
2021/01/30 06:28:04;;;;;;;138.55;91.68;;;282.10;1945.60;;;;;;4954678;29;20122;-70
2021/01/30 06:30:37;;;;;;;129.45;91.50;;;282.10;1920.00;;;;;;4954421;29;20496;-70
2021/01/30 06:33:30;;;;;;;145.10;99.00;;;282.10;1920.00;;;;;;4950575;28;20039;-69
2021/01/30 06:36:08;;;;;;;181.75;116.78;;;282.10;1920.00;;;;;;4945685;29;20525;-69
2021/01/30 06:38:40;;;;;;;203.02;124.95;;;282.00;1945.60;;;;;;4944168;29;20024;-70
2021/01/30 06:41:18;;;;;;;210.50;128.75;;;282.10;1920.00;;;;;;4935774;29;20486;-68
2021/01/30 06:43:47;;;;;;;132.75;89.38;;;281.90;1945.60;;;;;;4918216;29;20625;-69
2021/01/30 06:46:17;;;;;;;104.25;68.20;;;281.70;1945.60;;;;;;4935114;29;20043;-68
2021/01/30 06:48:46;;;;;;;155.98;102.50;;;281.60;1971.20;;;;;;4934987;29;20031;-69
2021/01/30 06:51:23;;;;;;;193.10;131.32;;;256.90;1945.60;;;;;;4935100;29;20028;-69
2021/01/30 06:53:49;;;;;;;266.98;184.70;;;281.60;1971.20;;;;;;4935557;29;20049;-69
2021/01/30 06:56:25;;;;;;;257.05;181.68;;;256.70;1971.20;;;;;;4934737;29;20043;-70
2021/01/30 06:59:00;;;;;;;255.13;183.50;;;256.60;1996.80;;;;;;4934972;29;20390;-69
2021/01/30 07:01:40;;;;;;;250.73;179.65;;;256.80;1971.20;;;;;;4935118;29;20498;-68
2021/01/30 07:04:50;;;;;;;229.65;156.70;;;281.70;1945.60;;;;;;4958099;28;20030;-69
2021/01/30 07:07:32;;;;;;;175.10;121.85;;;281.80;1945.60;;;;;;4963099;28;20404;-69
2021/01/30 07:10:22;;;;;;;168.70;114.85;;;281.80;1945.60;;;;;;4966956;28;20019;-69
2021/01/30 07:13:21;;;;;;;153.82;107.07;;;281.70;1945.60;;;;;;4953862;29;20030;-69
2021/01/30 07:16:10;;;;;;;151.63;102.47;;;281.70;1945.60;;;;;;4954107;29;20034;-69
2021/01/30 07:19:04;;;;;;;143.18;99.55;;;281.80;1945.60;;;;;;4913589;29;20036;-69
2021/01/30 07:21:38;;;;;;;143.55;99.18;;;281.80;1945.60;;;;;;4913487;29;20103;-69
2021/01/30 07:24:28;;;;;;;136.48;92.57;;;281.90;1945.60;;;;;;4913541;29;20036;-68
2021/01/30 07:27:00;;;;;;;132.23;93.63;;;282.00;1971.20;;;;;;4913417;29;20051;-68
2021/01/30 07:29:26;;;;;;;130.20;87.55;;;282.10;1920.00;;;;;;4913553;29;20044;-66
2021/01/30 07:32:13;;;;;;;103.53;72.15;;;282.20;1945.60;;;;;;4913560;29;20028;-67
2021/01/30 07:34:55;;;;;;;166.55;121.53;;;282.40;1945.60;;;;;;4913388;29;20442;-68
2021/01/30 07:37:30;;;;;;;218.32;147.95;;;307.30;1945.60;;;;;;4932789;29;20535;-68
2021/01/30 07:40:01;;;;;;;182.52;122.90;;;282.40;1894.40;;;;;;4927868;29;20043;-68
2021/01/30 07:42:54;;;;;;;166.82;117.53;;;282.50;1894.40;;;;;;4913471;29;20119;-68
2021/01/30 07:45:34;;;;;;;148.27;106.93;;;282.40;1920.00;;;;;;4911473;29;20514;-68
2021/01/30 07:48:12;;;;;;;177.27;125.45;;;282.20;1945.60;;;;;;4916875;29;20040;-68
2021/01/30 07:50:42;;;;;;;166.75;119.80;;;307.20;1971.20;;;;;;4916901;29;20483;-69
2021/01/30 07:53:38;;;;;;;185.02;134.63;;;307.40;1920.00;;;;;;4916871;29;20422;-69
2021/01/30 07:56:13;;;;;;;133.13;96.65;;;307.60;1894.40;;;;;;4878720;29;20041;-69
2021/01/30 07:59:04;;;;;;;131.30;92.97;;;307.80;1868.80;;;;;;4879157;29;20033;-69
2021/01/30 08:01:53;;;;;;;126.63;86.00;;;307.80;1868.80;;;;;;4878500;29;20033;-70
2021/01/30 08:04:43;;;;;;;129.60;94.75;;;307.50;1868.80;;;;;;4878975;29;20129;-69
2021/01/30 08:07:32;;;;;;;126.32;90.43;;;307.70;1868.80;;;;;;4879032;29;20060;-68
2021/01/30 08:10:15;;;;;;;130.95;89.45;;;307.60;1894.40;;;;;;4878896;29;20029;-68
2021/01/30 08:13:01;;;;;;;228.05;140.13;;;307.80;1868.80;;;;;;4879074;29;20265;-69
2021/01/30 08:15:45;;;;;;;153.50;104.68;;;307.60;1894.40;;;;;;4878828;29;20473;-73
2021/01/30 08:18:21;;;;;;;151.65;104.47;;;307.80;1868.80;;;;;;4878866;29;20048;-69
2021/01/30 08:21:07;;;;;;;116.60;84.38;;;333.00;1868.80;;;;;;4878787;29;20033;-67
2021/01/30 08:23:57;;;;;;;106.45;76.95;;;333.30;1817.60;;;;;;4870106;29;20062;-69
2021/01/30 08:26:37;;;;;;;96.85;67.75;;;333.60;1792.00;;;;;;4860027;29;20112;-69
2021/01/30 08:29:15;;;;;;;90.15;68.03;;;358.50;1740.80;;;;;;4860304;29;20082;-69
2021/01/30 08:31:52;;;;;;;95.97;69.47;;;358.70;1740.80;;;;;;4873780;29;20501;-71
2021/01/30 08:34:17;;;;;;;95.65;71.45;;;358.50;1689.60;;;;;;4950257;29;20082;-72
2021/01/30 08:36:50;;;;;;;99.88;72.03;;;358.80;1715.20;;;;;;4956715;29;20019;-72
2021/01/30 08:39:36;;;;;;;106.47;77.97;;;359.00;1664.00;;;;;;4956432;29;20027;-71
2021/01/30 08:42:31;;;;;;;108.28;78.82;;;359.30;1664.00;;;;;;4956298;29;20081;-71
2021/01/30 08:45:01;;;;;;;109.88;82.72;;;384.20;1638.40;;;;;;4954054;29;20043;-71
2021/01/30 08:47:28;;;;;;;115.47;87.13;;;384.40;1561.60;;;;;;4956302;29;20406;-73
2021/01/30 08:50:30;;;;;;;117.85;88.30;;;384.60;1587.20;;;;;;4956354;29;20470;-72
2021/01/30 08:53:12;;;;;;;111.68;82.35;;;384.80;1536.00;;;;;;4956362;29;20031;-73
2021/01/30 08:55:43;;;;;;;103.47;76.97;;;384.80;1561.60;;;;;;4955632;28;20067;-71
2021/01/30 08:58:32;;;;;;;112.82;85.18;;;410.00;1561.60;;;;;;4975216;28;20043;-68
2021/01/30 09:01:03;;;;;;;57.42;40.90;;;410.20;1536.00;;;;;;4975296;28;20026;-71
2021/01/30 09:03:43;;;;;;;66.78;45.55;;;410.30;1433.60;;;;;;4975476;28;20377;-71
2021/01/30 09:06:30;;;;;;;93.80;64.82;;;410.20;1459.20;;;;;;4975061;28;20038;-70
2021/01/30 09:09:23;;;;;;;83.97;61.22;;;410.40;1484.80;;;;;;4975223;28;20110;-71
2021/01/30 09:11:53;;;;;;;59.47;41.22;;;435.50;1433.60;;;;;;4956378;28;20069;-70
2021/01/30 09:14:19;;;;;;;73.10;52.47;;;410.30;1433.60;;;;;;4975104;28;20363;-72
2021/01/30 09:16:56;;;;;;;100.07;75.32;;;410.30;1459.20;;;;;;4975027;28;20022;-70
2021/01/30 09:19:31;;;;;;;84.72;60.83;;;461.30;1356.80;;;;;;4974993;28;20036;-70
2021/01/30 09:22:06;;;;;;;69.32;51.80;;;512.70;1152.00;;;;;;4974814;28;20022;-74
2021/01/30 09:25:04;;;;;;;71.90;55.17;;;512.80;1126.40;;;;;;4958205;28;20023;-68
2021/01/30 09:27:33;;;;;;;57.85;47.53;;;640.60;844.80;;;;;;4896307;29;20144;-74
2021/01/30 09:30:02;;;;;;;55.17;44.92;;;;;;;;;;4896330;29;20048;-75
2021/01/30 09:32:40;;;;;;;60.65;47.00;;;794.20;588.80;;;;;;4896380;29;20037;-75
2021/01/30 09:35:10;;;;;;;51.20;40.20;;;794.30;588.80;;;;;;4877412;29;20033;-72
2021/01/30 09:37:42;;;;;;;47.05;34.45;;;820.10;537.60;;;;;;4877365;29;20037;-73
2021/01/30 09:40:18;;;;;;;44.17;36.35;;;844.80;563.20;;;;;;4877354;29;20036;-72
2021/01/30 09:43:06;;;;;;;56.50;49.42;;;768.10;640.00;;;;;;4877353;29;20040;-73
2021/01/30 09:45:33;;;;;;;45.33;38.95;;;742.90;640.00;;;;;;4877063;29;20061;-73
2021/01/30 09:48:02;;;;;;;43.40;38.70;;;819.60;563.20;;;;;;4876880;29;20120;-70
2021/01/30 09:50:34;;;;;;;25.08;22.15;;;819.80;537.60;;;;;;4877094;29;20194;-74
2021/01/30 09:53:04;;;;;;;37.67;31.25;;;768.60;588.80;;;;;;4876942;29;20033;-69
2021/01/30 09:55:30;;;;;;;33.72;27.67;;;717.60;640.00;;;;;;4877025;29;20157;-70
2021/01/30 09:58:07;;;;;;;30.15;24.83;;;793.90;563.20;;;;;;4876821;29;20423;-71
2021/01/30 10:00:41;;;;;;;33.70;30.17;;;820.10;486.40;;;;;;4876973;29;20056;-70
2021/01/30 10:03:18;;;;;;;41.22;36.72;;;768.70;588.80;;;;;;4920652;28;20027;-69
2021/01/30 10:05:46;;;;;;;33.83;29.30;;;793.60;588.80;;;;;;4974023;28;20035;-70
2021/01/30 10:08:36;;;;;;;31.67;28.13;;;742.40;640.00;;;;;;4973087;28;20103;-70
2021/01/30 10:11:15;;;;;;;40.50;35.35;;;793.80;563.20;;;;;;4973218;28;20117;-70
2021/01/30 10:13:45;;;;;;;37.00;32.63;;;742.50;665.60;;;;;;4973439;28;20556;-71
2021/01/30 10:16:13;;;;;;;21.23;18.52;;;;;;;;;;4956531;28;20452;-71
2021/01/30 10:18:43;;;;;;;9.80;8.40;;;819.20;537.60;;;;;;4973915;28;20033;-75
2021/01/30 10:21:10;;;;;;;9.27;8.38;;;794.10;537.60;;;;;;4973996;28;20058;-68
2021/01/30 10:23:48;;;;;;;18.35;16.58;;;793.60;537.60;;;;;;4964218;28;20031;-70
2021/01/30 10:26:23;;;;;;;31.00;27.63;;;819.30;537.60;;;;;;4954460;28;20134;-70
2021/01/30 10:28:53;;;;;;;25.33;22.58;;;870.50;460.80;;;;;;4954908;29;20035;-71
2021/01/30 10:31:32;;;;;;;32.75;29.40;;;870.40;435.20;;;;;;4954950;29;20456;-68
2021/01/30 10:34:23;;;;;;;27.83;24.80;;;896.10;435.20;;;;;;4966181;28;20023;-69
2021/01/30 10:37:20;;;;;;;18.25;15.77;;;896.60;384.00;;;;;;4973987;28;20019;-68
2021/01/30 10:39:59;;;;;;;12.38;11.18;;;870.90;409.60;;;;;;4933422;29;20072;-69
2021/01/30 10:42:28;;;;;;;15.20;13.70;;;896.30;384.00;;;;;;4933219;29;20087;-69
2021/01/30 10:44:58;;;;;;;23.50;21.13;;;845.40;460.80;;;;;;4933487;29;20479;-69
2021/01/30 10:47:26;;;;;;;15.48;9.93;;;819.80;486.40;;;;;;4933179;29;20499;-70
2021/01/30 10:50:14;;;;;;;21.70;19.50;;;820.10;460.80;;;;;;4933231;28;20466;-68
2021/01/30 10:52:39;;;;;;;31.77;28.67;;;845.60;460.80;;;;;;4932941;29;20430;-69
2021/01/30 10:55:22;;;;;;;17.42;15.82;;;871.30;409.60;;;;;;4932848;29;20115;-69
2021/01/30 10:57:48;;;;;;;37.85;34.42;;;896.50;384.00;;;;;;4932667;29;20051;-69
2021/01/30 11:00:30;;;;;;;38.20;30.38;;;896.80;358.40;;;;;;4932714;29;20133;-70
2021/01/30 11:02:56;;;;;;;30.85;24.10;;;871.10;435.20;;;;;;4931011;29;20044;-70
2021/01/30 11:05:24;;;;;;;17.27;15.48;;;819.80;486.40;;;;;;4913714;29;20515;-70
2021/01/30 11:07:53;;;;;;;16.98;14.40;;;819.60;486.40;;;;;;4913714;29;20111;-70
2021/01/30 11:10:26;;;;;;;27.15;19.75;;;845.20;460.80;;;;;;4913671;29;20096;-70
2021/01/30 11:12:54;;;;;;;21.77;15.27;;;819.80;486.40;;;;;;4930500;29;20038;-70
2021/01/30 11:15:22;;;;;;;10.13;8.75;;;794.30;512.00;;;;;;4932613;29;20057;-68
2021/01/30 11:17:49;;;;;;;7.00;5.82;;;768.60;512.00;;;;;;4953824;29;20130;-69
2021/01/30 11:20:45;;;;;;;13.90;10.80;;;743.10;537.60;;;;;;4956306;28;20023;-69
2021/01/30 11:23:11;;;;;;;11.90;9.38;;;743.10;614.40;;;;;;4951620;28;20030;-68
2021/01/30 11:25:41;;;;;;;20.27;15.63;;;742.90;614.40;;;;;;4938409;29;20023;-69
2021/01/30 11:28:08;;;;;;;13.27;9.27;;;742.40;588.80;;;;;;4951488;29;20035;-71
2021/01/30 11:30:34;;;;;;;14.07;11.27;;;717.30;588.80;;;;;;4957787;28;20458;-71
2021/01/30 11:33:15;;;;;;;33.42;20.50;;;692.10;588.80;;;;;;4957115;28;20390;-73
2021/01/30 11:35:45;;;;;;;25.63;15.43;;;691.90;614.40;;;;;;4957664;29;20114;-75
2021/01/30 11:38:20;;;;;;;14.90;13.02;;;691.30;870.40;;;;;;4957504;28;20035;-73
2021/01/30 11:40:49;;;;;;;63.20;40.47;;;691.40;691.20;;;;;;4957472;29;20031;-74
2021/01/30 11:43:15;;;;;;;26.58;19.85;;;691.30;819.20;;;;;;4957626;28;20031;-74
2021/01/30 11:45:41;;;;;;;26.15;20.45;;;691.30;819.20;;;;;;4957462;29;20035;-75
2021/01/30 11:48:06;;;;;;;11.20;9.10;;;691.30;691.20;;;;;;4957797;28;20022;-74
2021/01/30 11:50:32;;;;;;;9.25;7.97;;;691.70;614.40;;;;;;4957793;29;20027;-74
2021/01/30 11:53:05;;;;;;;17.98;14.27;;;691.60;614.40;;;;;;4957889;29;20027;-73
2021/01/30 11:55:31;;;;;;;23.80;18.80;;;;;;;;;;4957452;28;20023;-73
2021/01/30 11:57:57;;;;;;;18.23;13.07;;;717.20;588.80;;;;;;4976202;28;20054;-75
2021/01/30 12:00:23;;;;;;;12.50;8.57;;;691.90;640.00;;;;;;4976450;28;20027;-75
2021/01/30 12:02:48;;;;;;;10.60;8.20;;;716.80;614.40;;;;;;4976015;28;20121;-71
2021/01/30 12:05:14;;;;;;;10.18;6.75;;;691.90;588.80;;;;;;4976300;28;20482;-72
2021/01/30 12:07:40;;;;;;;14.05;11.13;;;692.00;588.80;;;;;;4976159;28;20034;-74
2021/01/30 12:10:08;;;;;;;19.02;14.13;;;717.30;588.80;;;;;;4976241;28;20409;-73
2021/01/30 12:12:34;;;;;;;12.02;9.85;;;692.10;614.40;;;;;;4976379;28;20019;-70
2021/01/30 12:15:00;;;;;;;12.48;8.70;;;691.90;588.80;;;;;;4976038;28;20105;-70
2021/01/30 12:17:32;;;;;;;12.93;10.48;;;692.10;588.80;;;;;;4976151;28;20170;-73
2021/01/30 12:19:57;;;;;;;11.88;9.80;;;666.40;640.00;;;;;;4937901;29;20032;-73
2021/01/30 12:22:23;;;;;;;12.18;9.65;;;691.60;640.00;;;;;;4937439;29;20082;-73
2021/01/30 12:24:49;;;;;;;43.55;27.95;;;666.40;665.60;;;;;;4956142;29;20023;-70
2021/01/30 12:27:16;;;;;;;16.30;11.45;;;691.30;665.60;;;;;;4956908;29;20050;-72
2021/01/30 12:29:44;;;;;;;33.40;14.32;;;666.30;640.00;;;;;;4956375;29;20142;-74
2021/01/30 12:32:10;;;;;;;21.50;13.10;;;665.70;742.40;;;;;;4955470;28;20027;-73
2021/01/30 12:34:36;;;;;;;17.30;10.30;;;;;;;;;;4970656;28;20023;-72
2021/01/30 12:37:02;;;;;;;22.67;18.55;;;640.90;665.60;;;;;;4975400;28;20109;-72